sensor_id;sensor_type;location;lat;lon;timestamp;P1;durP1;ratioP1;P2;durP2;ratioP2
2898;SDS011;1459;50.864;6.438;2022-07-29T00:00:14;5.68;;;2.42;;
2898;SDS011;1459;50.864;6.438;2022-07-29T00:02:44;4.82;;;2.38;;
2898;SDS011;1459;50.864;6.438;2022-07-29T00:05:11;4.97;;;1.92;;
2898;SDS011;1459;50.864;6.438;2022-07-29T00:07:38;5.57;;;1.90;;
2898;SDS011;1459;50.864;6.438;2022-07-29T00:10:06;9.98;;;2.42;;
2898;SDS011;1459;50.864;6.438;2022-07-29T00:12:33;6.57;;;2.10;;
2898;SDS011;1459;50.864;6.438;2022-07-29T00:15:01;6.65;;;2.15;;
2898;SDS011;1459;50.864;6.438;2022-07-29T00:17:29;6.65;;;2.40;;
2898;SDS011;1459;50.864;6.438;2022-07-29T00:19:56;10.45;;;2.00;;
2898;SDS011;1459;50.864;6.438;2022-07-29T00:22:23;5.40;;;2.28;;
2898;SDS011;1459;50.864;6.438;2022-07-29T00:24:50;9.93;;;2.38;;
2898;SDS011;1459;50.864;6.438;2022-07-29T00:27:17;8.95;;;2.45;;
2898;SDS011;1459;50.864;6.438;2022-07-29T00:29:45;5.38;;;1.83;;
2898;SDS011;1459;50.864;6.438;2022-07-29T00:32:12;13.45;;;2.50;;
2898;SDS011;1459;50.864;6.438;2022-07-29T00:34:40;5.10;;;2.10;;
2898;SDS011;1459;50.864;6.438;2022-07-29T00:37:24;6.55;;;2.30;;
2898;SDS011;1459;50.864;6.438;2022-07-29T00:39:51;7.97;;;2.33;;
2898;SDS011;1459;50.864;6.438;2022-07-29T00:42:19;7.00;;;2.50;;
2898;SDS011;1459;50.864;6.438;2022-07-29T00:44:49;8.85;;;2.60;;
2898;SDS011;1459;50.864;6.438;2022-07-29T00:47:16;7.18;;;2.42;;
2898;SDS011;1459;50.864;6.438;2022-07-29T00:49:44;7.30;;;2.67;;
2898;SDS011;1459;50.864;6.438;2022-07-29T00:52:11;11.63;;;2.17;;
2898;SDS011;1459;50.864;6.438;2022-07-29T00:54:39;8.40;;;2.50;;
2898;SDS011;1459;50.864;6.438;2022-07-29T00:57:07;4.10;;;2.17;;
2898;SDS011;1459;50.864;6.438;2022-07-29T00:59:34;5.75;;;2.47;;
2898;SDS011;1459;50.864;6.438;2022-07-29T01:02:01;4.78;;;2.28;;
2898;SDS011;1459;50.864;6.438;2022-07-29T01:04:28;4.93;;;1.80;;
2898;SDS011;1459;50.864;6.438;2022-07-29T01:06:58;3.80;;;2.20;;
2898;SDS011;1459;50.864;6.438;2022-07-29T01:09:28;10.20;;;2.20;;
2898;SDS011;1459;50.864;6.438;2022-07-29T01:11:55;7.43;;;2.33;;
2898;SDS011;1459;50.864;6.438;2022-07-29T01:14:23;3.97;;;1.92;;
2898;SDS011;1459;50.864;6.438;2022-07-29T01:16:51;6.80;;;1.92;;
2898;SDS011;1459;50.864;6.438;2022-07-29T01:19:44;5.70;;;1.80;;
2898;SDS011;1459;50.864;6.438;2022-07-29T01:22:24;4.22;;;2.00;;
2898;SDS011;1459;50.864;6.438;2022-07-29T01:25:03;4.13;;;2.60;;
2898;SDS011;1459;50.864;6.438;2022-07-29T01:27:41;2.85;;;1.90;;
2898;SDS011;1459;50.864;6.438;2022-07-29T01:30:18;4.72;;;2.30;;
2898;SDS011;1459;50.864;6.438;2022-07-29T01:32:49;4.80;;;2.08;;
2898;SDS011;1459;50.864;6.438;2022-07-29T01:35:21;4.05;;;2.10;;
2898;SDS011;1459;50.864;6.438;2022-07-29T01:37:52;4.47;;;2.35;;
2898;SDS011;1459;50.864;6.438;2022-07-29T01:40:24;9.32;;;2.22;;
2898;SDS011;1459;50.864;6.438;2022-07-29T01:42:55;10.00;;;3.10;;
2898;SDS011;1459;50.864;6.438;2022-07-29T01:45:28;17.77;;;4.35;;
2898;SDS011;1459;50.864;6.438;2022-07-29T01:48:05;14.60;;;4.10;;
2898;SDS011;1459;50.864;6.438;2022-07-29T01:50:45;18.40;;;3.90;;
2898;SDS011;1459;50.864;6.438;2022-07-29T01:53:15;12.00;;;3.22;;
2898;SDS011;1459;50.864;6.438;2022-07-29T01:55:53;9.80;;;2.40;;
2898;SDS011;1459;50.864;6.438;2022-07-29T01:58:24;14.98;;;2.72;;
2898;SDS011;1459;50.864;6.438;2022-07-29T02:00:54;8.98;;;2.60;;
2898;SDS011;1459;50.864;6.438;2022-07-29T02:03:23;3.20;;;2.10;;
2898;SDS011;1459;50.864;6.438;2022-07-29T02:05:52;6.68;;;2.35;;
2898;SDS011;1459;50.864;6.438;2022-07-29T02:08:22;6.68;;;2.67;;
2898;SDS011;1459;50.864;6.438;2022-07-29T02:10:51;4.63;;;2.20;;
2898;SDS011;1459;50.864;6.438;2022-07-29T02:13:20;5.28;;;2.85;;
2898;SDS011;1459;50.864;6.438;2022-07-29T02:15:49;7.68;;;2.00;;
2898;SDS011;1459;50.864;6.438;2022-07-29T02:18:18;3.88;;;2.20;;
2898;SDS011;1459;50.864;6.438;2022-07-29T02:20:49;3.97;;;2.17;;
2898;SDS011;1459;50.864;6.438;2022-07-29T02:23:20;6.70;;;2.00;;
2898;SDS011;1459;50.864;6.438;2022-07-29T02:25:49;5.93;;;2.17;;
2898;SDS011;1459;50.864;6.438;2022-07-29T02:28:19;6.43;;;1.95;;
2898;SDS011;1459;50.864;6.438;2022-07-29T02:30:47;4.60;;;1.85;;
2898;SDS011;1459;50.864;6.438;2022-07-29T02:33:18;10.57;;;2.53;;
2898;SDS011;1459;50.864;6.438;2022-07-29T02:35:47;6.32;;;2.20;;
2898;SDS011;1459;50.864;6.438;2022-07-29T02:38:16;9.60;;;2.17;;
2898;SDS011;1459;50.864;6.438;2022-07-29T02:41:03;7.10;;;2.67;;
2898;SDS011;1459;50.864;6.438;2022-07-29T02:43:34;4.88;;;2.33;;
2898;SDS011;1459;50.864;6.438;2022-07-29T02:46:03;8.57;;;2.92;;
2898;SDS011;1459;50.864;6.438;2022-07-29T02:48:36;5.28;;;3.30;;
2898;SDS011;1459;50.864;6.438;2022-07-29T02:51:12;7.28;;;2.90;;
2898;SDS011;1459;50.864;6.438;2022-07-29T02:53:45;6.22;;;2.72;;
2898;SDS011;1459;50.864;6.438;2022-07-29T02:56:17;4.13;;;2.55;;
2898;SDS011;1459;50.864;6.438;2022-07-29T02:58:54;6.45;;;3.20;;
2898;SDS011;1459;50.864;6.438;2022-07-29T03:01:24;7.30;;;2.83;;
2898;SDS011;1459;50.864;6.438;2022-07-29T03:03:57;5.38;;;2.50;;
2898;SDS011;1459;50.864;6.438;2022-07-29T03:06:26;4.10;;;2.80;;
2898;SDS011;1459;50.864;6.438;2022-07-29T03:08:55;5.55;;;2.78;;
2898;SDS011;1459;50.864;6.438;2022-07-29T03:11:24;7.95;;;2.30;;
2898;SDS011;1459;50.864;6.438;2022-07-29T03:13:51;3.35;;;2.67;;
2898;SDS011;1459;50.864;6.438;2022-07-29T03:16:19;5.55;;;2.60;;
2898;SDS011;1459;50.864;6.438;2022-07-29T03:18:48;5.05;;;2.20;;
2898;SDS011;1459;50.864;6.438;2022-07-29T03:21:18;4.63;;;2.83;;
2898;SDS011;1459;50.864;6.438;2022-07-29T03:23:45;3.30;;;2.22;;
2898;SDS011;1459;50.864;6.438;2022-07-29T03:26:15;9.85;;;2.80;;
2898;SDS011;1459;50.864;6.438;2022-07-29T03:28:42;6.03;;;2.67;;
2898;SDS011;1459;50.864;6.438;2022-07-29T03:31:09;6.90;;;2.42;;
2898;SDS011;1459;50.864;6.438;2022-07-29T03:33:36;4.72;;;2.63;;
2898;SDS011;1459;50.864;6.438;2022-07-29T03:36:03;6.30;;;2.47;;
2898;SDS011;1459;50.864;6.438;2022-07-29T03:38:34;7.15;;;3.00;;
2898;SDS011;1459;50.864;6.438;2022-07-29T03:41:04;6.20;;;2.90;;
2898;SDS011;1459;50.864;6.438;2022-07-29T03:43:35;4.03;;;2.25;;
2898;SDS011;1459;50.864;6.438;2022-07-29T03:46:05;3.08;;;2.67;;
2898;SDS011;1459;50.864;6.438;2022-07-29T03:48:35;3.00;;;2.30;;
2898;SDS011;1459;50.864;6.438;2022-07-29T03:51:05;9.27;;;3.10;;
2898;SDS011;1459;50.864;6.438;2022-07-29T03:53:34;7.97;;;2.40;;
2898;SDS011;1459;50.864;6.438;2022-07-29T03:56:02;11.30;;;2.53;;
2898;SDS011;1459;50.864;6.438;2022-07-29T03:58:30;4.50;;;2.70;;
2898;SDS011;1459;50.864;6.438;2022-07-29T04:00:58;6.53;;;3.00;;
2898;SDS011;1459;50.864;6.438;2022-07-29T04:03:26;12.48;;;3.20;;
2898;SDS011;1459;50.864;6.438;2022-07-29T04:06:03;4.90;;;2.67;;
2898;SDS011;1459;50.864;6.438;2022-07-29T04:08:31;5.55;;;2.65;;
2898;SDS011;1459;50.864;6.438;2022-07-29T04:11:00;3.90;;;2.92;;
2898;SDS011;1459;50.864;6.438;2022-07-29T04:13:27;3.13;;;2.65;;
2898;SDS011;1459;50.864;6.438;2022-07-29T04:15:55;4.55;;;2.50;;
2898;SDS011;1459;50.864;6.438;2022-07-29T04:18:22;7.05;;;3.08;;
2898;SDS011;1459;50.864;6.438;2022-07-29T04:20:49;5.63;;;2.40;;
2898;SDS011;1459;50.864;6.438;2022-07-29T04:23:16;12.20;;;3.03;;
2898;SDS011;1459;50.864;6.438;2022-07-29T04:25:43;7.10;;;2.50;;
2898;SDS011;1459;50.864;6.438;2022-07-29T04:28:12;4.28;;;2.50;;
2898;SDS011;1459;50.864;6.438;2022-07-29T04:30:39;4.05;;;2.00;;
2898;SDS011;1459;50.864;6.438;2022-07-29T04:33:06;5.60;;;2.40;;
2898;SDS011;1459;50.864;6.438;2022-07-29T04:35:34;5.68;;;2.17;;
2898;SDS011;1459;50.864;6.438;2022-07-29T04:38:03;7.57;;;2.53;;
2898;SDS011;1459;50.864;6.438;2022-07-29T04:40:30;5.85;;;2.00;;
2898;SDS011;1459;50.864;6.438;2022-07-29T04:42:58;3.33;;;2.63;;
2898;SDS011;1459;50.864;6.438;2022-07-29T04:45:28;6.07;;;2.40;;
2898;SDS011;1459;50.864;6.438;2022-07-29T04:47:55;4.50;;;2.33;;
2898;SDS011;1459;50.864;6.438;2022-07-29T04:50:22;4.82;;;2.63;;
2898;SDS011;1459;50.864;6.438;2022-07-29T04:52:49;5.78;;;2.55;;
2898;SDS011;1459;50.864;6.438;2022-07-29T04:55:16;6.03;;;2.28;;
2898;SDS011;1459;50.864;6.438;2022-07-29T04:57:43;6.50;;;2.20;;
2898;SDS011;1459;50.864;6.438;2022-07-29T05:00:10;4.78;;;1.98;;
2898;SDS011;1459;50.864;6.438;2022-07-29T05:02:39;4.75;;;2.90;;
2898;SDS011;1459;50.864;6.438;2022-07-29T05:05:06;7.07;;;3.42;;
2898;SDS011;1459;50.864;6.438;2022-07-29T05:07:34;6.18;;;3.20;;
2898;SDS011;1459;50.864;6.438;2022-07-29T05:10:01;3.95;;;2.83;;
2898;SDS011;1459;50.864;6.438;2022-07-29T05:12:29;5.90;;;2.85;;
2898;SDS011;1459;50.864;6.438;2022-07-29T05:14:55;7.20;;;3.40;;
2898;SDS011;1459;50.864;6.438;2022-07-29T05:17:22;3.95;;;2.45;;
2898;SDS011;1459;50.864;6.438;2022-07-29T05:19:51;4.75;;;2.75;;
2898;SDS011;1459;50.864;6.438;2022-07-29T05:22:18;5.20;;;3.13;;
2898;SDS011;1459;50.864;6.438;2022-07-29T05:24:45;10.85;;;2.95;;
2898;SDS011;1459;50.864;6.438;2022-07-29T05:27:12;6.97;;;3.13;;
2898;SDS011;1459;50.864;6.438;2022-07-29T05:29:40;4.65;;;2.35;;
2898;SDS011;1459;50.864;6.438;2022-07-29T05:32:07;8.10;;;3.30;;
2898;SDS011;1459;50.864;6.438;2022-07-29T05:34:34;4.80;;;2.42;;
2898;SDS011;1459;50.864;6.438;2022-07-29T05:37:02;5.35;;;2.92;;
2898;SDS011;1459;50.864;6.438;2022-07-29T05:39:29;7.97;;;3.42;;
2898;SDS011;1459;50.864;6.438;2022-07-29T05:41:56;7.47;;;3.35;;
2898;SDS011;1459;50.864;6.438;2022-07-29T05:44:23;9.68;;;3.00;;
2898;SDS011;1459;50.864;6.438;2022-07-29T05:46:50;8.90;;;3.00;;
2898;SDS011;1459;50.864;6.438;2022-07-29T05:49:17;17.63;;;3.60;;
2898;SDS011;1459;50.864;6.438;2022-07-29T05:51:44;9.23;;;3.60;;
2898;SDS011;1459;50.864;6.438;2022-07-29T05:54:14;7.45;;;3.65;;
2898;SDS011;1459;50.864;6.438;2022-07-29T05:56:41;8.45;;;3.42;;
2898;SDS011;1459;50.864;6.438;2022-07-29T05:59:08;10.02;;;4.25;;
2898;SDS011;1459;50.864;6.438;2022-07-29T06:01:35;9.25;;;3.40;;
2898;SDS011;1459;50.864;6.438;2022-07-29T06:04:05;9.68;;;3.90;;
2898;SDS011;1459;50.864;6.438;2022-07-29T06:06:32;5.70;;;3.15;;
2898;SDS011;1459;50.864;6.438;2022-07-29T06:09:00;9.55;;;3.88;;
2898;SDS011;1459;50.864;6.438;2022-07-29T06:11:28;8.15;;;4.22;;
2898;SDS011;1459;50.864;6.438;2022-07-29T06:13:55;8.60;;;4.85;;
2898;SDS011;1459;50.864;6.438;2022-07-29T06:16:22;6.53;;;3.92;;
2898;SDS011;1459;50.864;6.438;2022-07-29T06:18:49;6.95;;;3.63;;
2898;SDS011;1459;50.864;6.438;2022-07-29T06:21:17;7.47;;;3.40;;
2898;SDS011;1459;50.864;6.438;2022-07-29T06:23:44;11.68;;;3.42;;
2898;SDS011;1459;50.864;6.438;2022-07-29T06:26:11;14.77;;;4.30;;
2898;SDS011;1459;50.864;6.438;2022-07-29T06:28:39;8.55;;;4.40;;
2898;SDS011;1459;50.864;6.438;2022-07-29T06:31:06;13.88;;;3.70;;
2898;SDS011;1459;50.864;6.438;2022-07-29T06:33:34;7.50;;;3.83;;
2898;SDS011;1459;50.864;6.438;2022-07-29T06:36:03;10.13;;;5.15;;
2898;SDS011;1459;50.864;6.438;2022-07-29T06:38:30;7.75;;;3.75;;
2898;SDS011;1459;50.864;6.438;2022-07-29T06:40:57;11.93;;;4.20;;
2898;SDS011;1459;50.864;6.438;2022-07-29T06:43:28;7.82;;;4.40;;
2898;SDS011;1459;50.864;6.438;2022-07-29T06:46:01;9.57;;;3.78;;
2898;SDS011;1459;50.864;6.438;2022-07-29T06:48:29;6.95;;;3.67;;
2898;SDS011;1459;50.864;6.438;2022-07-29T06:50:58;16.05;;;4.45;;
2898;SDS011;1459;50.864;6.438;2022-07-29T06:53:25;7.13;;;3.90;;
2898;SDS011;1459;50.864;6.438;2022-07-29T06:55:52;8.35;;;3.80;;
2898;SDS011;1459;50.864;6.438;2022-07-29T06:58:19;11.77;;;4.70;;
2898;SDS011;1459;50.864;6.438;2022-07-29T07:00:46;6.60;;;3.60;;
2898;SDS011;1459;50.864;6.438;2022-07-29T07:03:15;12.20;;;3.97;;
2898;SDS011;1459;50.864;6.438;2022-07-29T07:05:43;6.20;;;4.40;;
2898;SDS011;1459;50.864;6.438;2022-07-29T07:08:11;6.88;;;4.75;;
2898;SDS011;1459;50.864;6.438;2022-07-29T07:10:38;10.73;;;5.10;;
2898;SDS011;1459;50.864;6.438;2022-07-29T07:13:06;11.63;;;4.50;;
2898;SDS011;1459;50.864;6.438;2022-07-29T07:15:33;10.48;;;4.95;;
2898;SDS011;1459;50.864;6.438;2022-07-29T07:18:01;10.25;;;4.80;;
2898;SDS011;1459;50.864;6.438;2022-07-29T07:20:30;12.60;;;5.97;;
2898;SDS011;1459;50.864;6.438;2022-07-29T07:22:57;8.90;;;4.90;;
2898;SDS011;1459;50.864;6.438;2022-07-29T07:25:24;13.55;;;5.70;;
2898;SDS011;1459;50.864;6.438;2022-07-29T07:27:52;7.60;;;5.50;;
2898;SDS011;1459;50.864;6.438;2022-07-29T07:30:19;9.90;;;5.68;;
2898;SDS011;1459;50.864;6.438;2022-07-29T07:32:46;17.77;;;6.00;;
2898;SDS011;1459;50.864;6.438;2022-07-29T07:35:13;10.65;;;4.82;;
2898;SDS011;1459;50.864;6.438;2022-07-29T07:37:42;9.68;;;5.85;;
2898;SDS011;1459;50.864;6.438;2022-07-29T07:40:09;7.60;;;5.90;;
2898;SDS011;1459;50.864;6.438;2022-07-29T07:42:37;9.15;;;5.50;;
2898;SDS011;1459;50.864;6.438;2022-07-29T07:45:05;10.23;;;5.03;;
2898;SDS011;1459;50.864;6.438;2022-07-29T07:47:34;9.95;;;5.55;;
2898;SDS011;1459;50.864;6.438;2022-07-29T07:50:01;9.30;;;5.20;;
2898;SDS011;1459;50.864;6.438;2022-07-29T07:52:29;9.60;;;5.55;;
2898;SDS011;1459;50.864;6.438;2022-07-29T07:54:58;9.20;;;5.78;;
2898;SDS011;1459;50.864;6.438;2022-07-29T07:57:25;8.15;;;6.00;;
2898;SDS011;1459;50.864;6.438;2022-07-29T07:59:52;7.20;;;5.10;;
2898;SDS011;1459;50.864;6.438;2022-07-29T08:02:19;7.30;;;5.20;;
2898;SDS011;1459;50.864;6.438;2022-07-29T08:04:46;10.45;;;5.40;;
2898;SDS011;1459;50.864;6.438;2022-07-29T08:07:13;7.28;;;4.90;;
2898;SDS011;1459;50.864;6.438;2022-07-29T08:09:40;5.97;;;5.13;;
2898;SDS011;1459;50.864;6.438;2022-07-29T08:12:09;10.55;;;6.25;;
2898;SDS011;1459;50.864;6.438;2022-07-29T08:14:36;9.38;;;4.63;;
2898;SDS011;1459;50.864;6.438;2022-07-29T08:17:03;6.47;;;4.78;;
2898;SDS011;1459;50.864;6.438;2022-07-29T08:19:30;10.25;;;4.80;;
2898;SDS011;1459;50.864;6.438;2022-07-29T08:21:57;9.02;;;4.50;;
2898;SDS011;1459;50.864;6.438;2022-07-29T08:24:24;5.07;;;4.35;;
2898;SDS011;1459;50.864;6.438;2022-07-29T08:27:13;9.38;;;4.03;;
2898;SDS011;1459;50.864;6.438;2022-07-29T08:29:40;8.38;;;4.57;;
2898;SDS011;1459;50.864;6.438;2022-07-29T08:32:07;7.55;;;4.72;;
2898;SDS011;1459;50.864;6.438;2022-07-29T08:34:34;5.65;;;3.80;;
2898;SDS011;1459;50.864;6.438;2022-07-29T08:37:01;4.90;;;4.35;;
2898;SDS011;1459;50.864;6.438;2022-07-29T08:39:28;8.38;;;4.32;;
2898;SDS011;1459;50.864;6.438;2022-07-29T08:41:56;4.28;;;3.80;;
2898;SDS011;1459;50.864;6.438;2022-07-29T08:44:24;11.35;;;4.63;;
2898;SDS011;1459;50.864;6.438;2022-07-29T08:46:52;8.13;;;3.40;;
2898;SDS011;1459;50.864;6.438;2022-07-29T08:49:19;8.18;;;4.95;;
2898;SDS011;1459;50.864;6.438;2022-07-29T08:51:46;5.63;;;4.30;;
2898;SDS011;1459;50.864;6.438;2022-07-29T08:54:16;5.07;;;3.63;;
2898;SDS011;1459;50.864;6.438;2022-07-29T08:56:43;4.75;;;3.50;;
2898;SDS011;1459;50.864;6.438;2022-07-29T08:59:14;5.63;;;3.70;;
2898;SDS011;1459;50.864;6.438;2022-07-29T09:01:46;4.78;;;3.97;;
2898;SDS011;1459;50.864;6.438;2022-07-29T09:04:14;5.47;;;3.72;;
2898;SDS011;1459;50.864;6.438;2022-07-29T09:06:43;4.78;;;3.40;;
2898;SDS011;1459;50.864;6.438;2022-07-29T09:09:11;5.27;;;3.60;;
2898;SDS011;1459;50.864;6.438;2022-07-29T09:11:39;6.70;;;3.00;;
2898;SDS011;1459;50.864;6.438;2022-07-29T09:14:06;7.93;;;3.78;;
2898;SDS011;1459;50.864;6.438;2022-07-29T09:16:44;5.10;;;3.17;;
2898;SDS011;1459;50.864;6.438;2022-07-29T09:19:20;4.37;;;3.20;;
2898;SDS011;1459;50.864;6.438;2022-07-29T09:21:52;10.63;;;3.57;;
2898;SDS011;1459;50.864;6.438;2022-07-29T09:24:25;3.40;;;2.70;;
2898;SDS011;1459;50.864;6.438;2022-07-29T09:27:02;7.50;;;3.20;;
2898;SDS011;1459;50.864;6.438;2022-07-29T09:29:33;7.33;;;4.00;;
2898;SDS011;1459;50.864;6.438;2022-07-29T09:32:02;5.70;;;3.25;;
2898;SDS011;1459;50.864;6.438;2022-07-29T09:34:34;4.80;;;2.80;;
2898;SDS011;1459;50.864;6.438;2022-07-29T09:37:01;5.33;;;3.33;;
2898;SDS011;1459;50.864;6.438;2022-07-29T09:39:30;4.97;;;2.57;;
2898;SDS011;1459;50.864;6.438;2022-07-29T09:42:00;6.53;;;3.80;;
2898;SDS011;1459;50.864;6.438;2022-07-29T09:44:40;6.43;;;3.10;;
2898;SDS011;1459;50.864;6.438;2022-07-29T09:47:09;5.03;;;3.17;;
2898;SDS011;1459;50.864;6.438;2022-07-29T09:49:49;5.33;;;2.90;;
2898;SDS011;1459;50.864;6.438;2022-07-29T09:52:18;7.10;;;3.00;;
2898;SDS011;1459;50.864;6.438;2022-07-29T09:54:46;5.13;;;3.50;;
2898;SDS011;1459;50.864;6.438;2022-07-29T09:57:24;7.97;;;4.00;;
2898;SDS011;1459;50.864;6.438;2022-07-29T09:59:58;4.63;;;3.93;;
2898;SDS011;1459;50.864;6.438;2022-07-29T10:02:30;9.13;;;3.70;;
2898;SDS011;1459;50.864;6.438;2022-07-29T10:05:02;7.87;;;3.67;;
2898;SDS011;1459;50.864;6.438;2022-07-29T10:07:45;7.70;;;3.30;;
2898;SDS011;1459;50.864;6.438;2022-07-29T10:10:18;6.83;;;3.67;;
2898;SDS011;1459;50.864;6.438;2022-07-29T10:12:51;6.03;;;4.37;;
2898;SDS011;1459;50.864;6.438;2022-07-29T10:15:20;7.73;;;3.90;;
2898;SDS011;1459;50.864;6.438;2022-07-29T10:17:50;5.35;;;4.15;;
2898;SDS011;1459;50.864;6.438;2022-07-29T10:20:18;6.87;;;4.10;;
2898;SDS011;1459;50.864;6.438;2022-07-29T10:22:46;10.07;;;4.75;;
2898;SDS011;1459;50.864;6.438;2022-07-29T10:25:13;6.60;;;5.50;;
2898;SDS011;1459;50.864;6.438;2022-07-29T10:27:41;8.93;;;4.07;;
2898;SDS011;1459;50.864;6.438;2022-07-29T10:30:10;6.13;;;3.40;;
2898;SDS011;1459;50.864;6.438;2022-07-29T10:32:44;8.20;;;3.73;;
2898;SDS011;1459;50.864;6.438;2022-07-29T10:41:17;6.83;;;3.73;;
2898;SDS011;1459;50.864;6.438;2022-07-29T10:43:54;8.67;;;3.60;;
2898;SDS011;1459;50.864;6.438;2022-07-29T10:46:24;5.17;;;3.47;;
2898;SDS011;1459;50.864;6.438;2022-07-29T10:49:05;6.73;;;3.80;;
2898;SDS011;1459;50.864;6.438;2022-07-29T10:54:36;4.55;;;3.60;;
2898;SDS011;1459;50.864;6.438;2022-07-29T10:57:16;7.43;;;4.07;;
2898;SDS011;1459;50.864;6.438;2022-07-29T10:59:45;4.72;;;4.00;;
2898;SDS011;1459;50.864;6.438;2022-07-29T11:05:21;10.67;;;5.43;;
2898;SDS011;1459;50.864;6.438;2022-07-29T11:10:53;6.25;;;4.85;;
2898;SDS011;1459;50.864;6.438;2022-07-29T11:13:50;9.35;;;5.43;;
2898;SDS011;1459;50.864;6.438;2022-07-29T11:16:20;7.78;;;5.97;;
2898;SDS011;1459;50.864;6.438;2022-07-29T11:21:55;8.10;;;5.90;;
2898;SDS011;1459;50.864;6.438;2022-07-29T11:24:24;6.68;;;5.38;;
2898;SDS011;1459;50.864;6.438;2022-07-29T11:27:10;7.85;;;5.82;;
2898;SDS011;1459;50.864;6.438;2022-07-29T11:29:50;5.72;;;4.80;;
2898;SDS011;1459;50.864;6.438;2022-07-29T11:32:18;9.03;;;5.50;;
2898;SDS011;1459;50.864;6.438;2022-07-29T11:34:47;5.97;;;4.40;;
2898;SDS011;1459;50.864;6.438;2022-07-29T11:37:20;8.30;;;4.30;;
2898;SDS011;1459;50.864;6.438;2022-07-29T11:42:47;7.70;;;4.37;;
2898;SDS011;1459;50.864;6.438;2022-07-29T11:45:24;7.73;;;4.40;;
2898;SDS011;1459;50.864;6.438;2022-07-29T11:47:58;5.35;;;4.15;;
2898;SDS011;1459;50.864;6.438;2022-07-29T11:50:30;6.33;;;4.10;;
2898;SDS011;1459;50.864;6.438;2022-07-29T11:53:03;5.03;;;4.07;;
2898;SDS011;1459;50.864;6.438;2022-07-29T11:55:39;6.73;;;4.20;;
2898;SDS011;1459;50.864;6.438;2022-07-29T11:58:06;8.20;;;4.57;;
2898;SDS011;1459;50.864;6.438;2022-07-29T12:00:35;8.30;;;3.83;;
2898;SDS011;1459;50.864;6.438;2022-07-29T12:03:04;5.87;;;3.80;;
2898;SDS011;1459;50.864;6.438;2022-07-29T12:05:33;8.37;;;3.83;;
2898;SDS011;1459;50.864;6.438;2022-07-29T12:08:11;6.30;;;4.17;;
2898;SDS011;1459;50.864;6.438;2022-07-29T12:10:39;6.87;;;4.00;;
2898;SDS011;1459;50.864;6.438;2022-07-29T12:13:07;7.90;;;4.00;;
2898;SDS011;1459;50.864;6.438;2022-07-29T12:15:35;7.73;;;4.20;;
2898;SDS011;1459;50.864;6.438;2022-07-29T12:18:09;6.73;;;4.40;;
2898;SDS011;1459;50.864;6.438;2022-07-29T12:20:37;5.57;;;4.17;;
2898;SDS011;1459;50.864;6.438;2022-07-29T12:23:05;7.60;;;4.03;;
2898;SDS011;1459;50.864;6.438;2022-07-29T12:25:35;5.67;;;3.60;;
2898;SDS011;1459;50.864;6.438;2022-07-29T12:28:03;8.13;;;4.00;;
2898;SDS011;1459;50.864;6.438;2022-07-29T12:30:35;5.60;;;3.07;;
2898;SDS011;1459;50.864;6.438;2022-07-29T12:33:14;5.40;;;2.80;;
2898;SDS011;1459;50.864;6.438;2022-07-29T12:35:44;6.83;;;3.00;;
2898;SDS011;1459;50.864;6.438;2022-07-29T12:38:13;3.70;;;2.27;;
2898;SDS011;1459;50.864;6.438;2022-07-29T12:40:42;8.50;;;3.50;;
2898;SDS011;1459;50.864;6.438;2022-07-29T12:43:11;4.20;;;2.67;;
2898;SDS011;1459;50.864;6.438;2022-07-29T12:45:41;5.40;;;3.60;;
2898;SDS011;1459;50.864;6.438;2022-07-29T12:48:09;6.83;;;4.63;;
2898;SDS011;1459;50.864;6.438;2022-07-29T12:50:51;6.90;;;3.23;;
2898;SDS011;1459;50.864;6.438;2022-07-29T12:53:19;6.37;;;3.73;;
2898;SDS011;1459;50.864;6.438;2022-07-29T12:55:48;6.00;;;3.60;;
2898;SDS011;1459;50.864;6.438;2022-07-29T12:58:30;9.40;;;3.30;;
2898;SDS011;1459;50.864;6.438;2022-07-29T13:01:09;6.27;;;3.60;;
2898;SDS011;1459;50.864;6.438;2022-07-29T13:03:44;7.27;;;3.20;;
2898;SDS011;1459;50.864;6.438;2022-07-29T13:06:27;6.20;;;3.27;;
2898;SDS011;1459;50.864;6.438;2022-07-29T13:11:46;5.33;;;3.60;;
2898;SDS011;1459;50.864;6.438;2022-07-29T13:14:29;6.00;;;2.97;;
2898;SDS011;1459;50.864;6.438;2022-07-29T13:17:01;6.90;;;3.50;;
2898;SDS011;1459;50.864;6.438;2022-07-29T13:19:35;3.87;;;3.40;;
2898;SDS011;1459;50.864;6.438;2022-07-29T13:22:03;4.80;;;4.07;;
2898;SDS011;1459;50.864;6.438;2022-07-29T13:24:30;6.60;;;3.90;;
2898;SDS011;1459;50.864;6.438;2022-07-29T13:26:59;6.30;;;3.50;;
2898;SDS011;1459;50.864;6.438;2022-07-29T13:29:26;4.47;;;3.37;;
2898;SDS011;1459;50.864;6.438;2022-07-29T13:31:54;6.37;;;3.60;;
2898;SDS011;1459;50.864;6.438;2022-07-29T13:34:21;4.00;;;2.83;;
2898;SDS011;1459;50.864;6.438;2022-07-29T13:36:49;4.70;;;2.63;;
2898;SDS011;1459;50.864;6.438;2022-07-29T13:39:16;3.77;;;3.27;;
2898;SDS011;1459;50.864;6.438;2022-07-29T13:41:43;5.20;;;2.77;;
2898;SDS011;1459;50.864;6.438;2022-07-29T13:44:11;5.60;;;2.67;;
2898;SDS011;1459;50.864;6.438;2022-07-29T13:46:38;5.00;;;2.50;;
2898;SDS011;1459;50.864;6.438;2022-07-29T13:49:05;3.13;;;2.23;;
2898;SDS011;1459;50.864;6.438;2022-07-29T13:51:32;5.10;;;2.43;;
2898;SDS011;1459;50.864;6.438;2022-07-29T13:53:59;6.50;;;3.43;;
2898;SDS011;1459;50.864;6.438;2022-07-29T13:56:27;6.33;;;3.60;;
2898;SDS011;1459;50.864;6.438;2022-07-29T13:58:54;3.87;;;2.60;;
2898;SDS011;1459;50.864;6.438;2022-07-29T14:01:23;4.37;;;2.70;;
2898;SDS011;1459;50.864;6.438;2022-07-29T14:03:51;5.27;;;2.67;;
2898;SDS011;1459;50.864;6.438;2022-07-29T14:06:18;6.30;;;2.90;;
2898;SDS011;1459;50.864;6.438;2022-07-29T14:08:45;3.57;;;2.37;;
2898;SDS011;1459;50.864;6.438;2022-07-29T14:11:12;4.20;;;2.77;;
2898;SDS011;1459;50.864;6.438;2022-07-29T14:13:39;3.70;;;2.97;;
2898;SDS011;1459;50.864;6.438;2022-07-29T14:16:06;3.37;;;2.53;;
2898;SDS011;1459;50.864;6.438;2022-07-29T14:18:34;6.20;;;3.00;;
2898;SDS011;1459;50.864;6.438;2022-07-29T14:21:01;7.00;;;2.73;;
2898;SDS011;1459;50.864;6.438;2022-07-29T14:23:29;3.27;;;2.30;;
2898;SDS011;1459;50.864;6.438;2022-07-29T14:25:56;5.73;;;2.97;;
2898;SDS011;1459;50.864;6.438;2022-07-29T14:28:23;4.93;;;2.57;;
2898;SDS011;1459;50.864;6.438;2022-07-29T14:30:50;9.40;;;3.10;;
2898;SDS011;1459;50.864;6.438;2022-07-29T14:33:17;5.73;;;2.50;;
2898;SDS011;1459;50.864;6.438;2022-07-29T14:35:46;4.53;;;2.60;;
2898;SDS011;1459;50.864;6.438;2022-07-29T14:38:13;4.87;;;2.50;;
2898;SDS011;1459;50.864;6.438;2022-07-29T14:40:40;3.40;;;2.30;;
2898;SDS011;1459;50.864;6.438;2022-07-29T14:43:07;2.87;;;2.50;;
2898;SDS011;1459;50.864;6.438;2022-07-29T14:45:34;2.83;;;1.70;;
2898;SDS011;1459;50.864;6.438;2022-07-29T14:48:01;4.90;;;2.97;;
2898;SDS011;1459;50.864;6.438;2022-07-29T14:50:28;2.50;;;1.93;;
2898;SDS011;1459;50.864;6.438;2022-07-29T14:52:57;5.63;;;2.10;;
2898;SDS011;1459;50.864;6.438;2022-07-29T14:55:24;2.60;;;1.73;;
2898;SDS011;1459;50.864;6.438;2022-07-29T14:57:52;2.27;;;2.00;;
2898;SDS011;1459;50.864;6.438;2022-07-29T15:00:20;3.10;;;2.43;;
2898;SDS011;1459;50.864;6.438;2022-07-29T15:02:47;3.03;;;1.90;;
2898;SDS011;1459;50.864;6.438;2022-07-29T15:05:14;3.00;;;1.67;;
2898;SDS011;1459;50.864;6.438;2022-07-29T15:07:42;3.10;;;1.93;;
2898;SDS011;1459;50.864;6.438;2022-07-29T15:10:10;2.80;;;2.10;;
2898;SDS011;1459;50.864;6.438;2022-07-29T15:12:38;2.03;;;1.83;;
2898;SDS011;1459;50.864;6.438;2022-07-29T15:15:05;1.90;;;1.70;;
2898;SDS011;1459;50.864;6.438;2022-07-29T15:17:33;1.90;;;1.40;;
2898;SDS011;1459;50.864;6.438;2022-07-29T15:20:00;3.70;;;1.97;;
2898;SDS011;1459;50.864;6.438;2022-07-29T15:22:28;4.93;;;2.07;;
2898;SDS011;1459;50.864;6.438;2022-07-29T15:24:55;2.73;;;2.00;;
2898;SDS011;1459;50.864;6.438;2022-07-29T15:27:24;2.27;;;1.80;;
2898;SDS011;1459;50.864;6.438;2022-07-29T15:29:51;1.93;;;1.30;;
2898;SDS011;1459;50.864;6.438;2022-07-29T15:32:18;1.90;;;1.60;;
2898;SDS011;1459;50.864;6.438;2022-07-29T15:34:45;4.63;;;2.03;;
2898;SDS011;1459;50.864;6.438;2022-07-29T15:37:13;2.97;;;1.90;;
2898;SDS011;1459;50.864;6.438;2022-07-29T15:39:40;2.00;;;1.70;;
2898;SDS011;1459;50.864;6.438;2022-07-29T15:42:07;4.20;;;2.40;;
2898;SDS011;1459;50.864;6.438;2022-07-29T15:44:36;6.93;;;1.80;;
2898;SDS011;1459;50.864;6.438;2022-07-29T15:47:03;2.80;;;1.70;;
2898;SDS011;1459;50.864;6.438;2022-07-29T15:49:31;2.70;;;1.97;;
2898;SDS011;1459;50.864;6.438;2022-07-29T15:51:59;2.03;;;1.60;;